createdAt,value
2018-11-26T00:04:05.971Z,19.80
2018-11-26T00:09:09.161Z,17.87
2018-11-26T00:14:12.370Z,17.30
2018-11-26T00:19:15.571Z,16.87
2018-11-26T00:24:18.712Z,18.03
2018-11-26T00:29:21.876Z,18.70
2018-11-26T00:34:25.025Z,16.60
2018-11-26T00:39:28.191Z,18.40
2018-11-26T00:44:31.360Z,16.50
2018-11-26T00:49:34.548Z,16.60
2018-11-26T00:54:37.716Z,16.27
2018-11-26T00:59:40.887Z,16.07
2018-11-26T01:04:44.056Z,14.83
2018-11-26T01:09:47.211Z,13.73
2018-11-26T01:14:50.410Z,16.43
2018-11-26T01:19:53.574Z,15.47
2018-11-26T01:24:56.751Z,15.10
2018-11-26T01:29:59.915Z,14.03
2018-11-26T01:35:03.179Z,13.33
2018-11-26T01:40:29.704Z,13.10
2018-11-26T01:45:32.864Z,12.70
2018-11-26T01:50:35.991Z,11.93
2018-11-26T01:55:39.138Z,11.60
2018-11-26T02:00:42.343Z,12.07
2018-11-26T02:05:45.552Z,12.77
2018-11-26T02:10:48.739Z,12.93
2018-11-26T02:15:51.940Z,13.47
2018-11-26T02:20:55.071Z,12.33
2018-11-26T02:25:58.184Z,12.47
2018-11-26T02:31:01.328Z,12.13
2018-11-26T02:36:05.051Z,13.93
2018-11-26T02:41:08.187Z,13.30
2018-11-26T02:46:11.334Z,11.17
2018-11-26T02:51:14.454Z,13.37
2018-11-26T02:56:17.644Z,13.00
2018-11-26T03:01:20.763Z,14.33
2018-11-26T03:06:23.896Z,13.93
2018-11-26T03:11:27.091Z,15.20
2018-11-26T03:16:30.230Z,13.73
2018-11-26T03:21:33.364Z,15.10
2018-11-26T03:26:36.491Z,14.63
2018-11-26T03:31:39.627Z,15.83
2018-11-26T03:36:42.761Z,16.30
2018-11-26T03:41:46.663Z,15.20
2018-11-26T03:46:49.783Z,14.57
2018-11-26T03:51:52.996Z,14.30
2018-11-26T03:56:56.131Z,15.03
2018-11-26T04:01:59.344Z,15.50
2018-11-26T04:07:02.528Z,16.53
2018-11-26T04:12:06.832Z,15.60
2018-11-26T04:17:10.010Z,16.17
2018-11-26T04:22:13.215Z,15.60
2018-11-26T04:27:16.352Z,16.53
2018-11-26T04:32:19.534Z,15.50
2018-11-26T04:37:22.663Z,18.07
2018-11-26T04:42:25.843Z,15.80
2018-11-26T04:47:29.016Z,17.40
2018-11-26T04:52:32.165Z,17.70
2018-11-26T04:57:35.583Z,19.37
2018-11-26T05:02:38.696Z,19.13
2018-11-26T05:07:41.884Z,17.03
2018-11-26T05:12:45.060Z,18.53
2018-11-26T05:17:48.231Z,18.97
2018-11-26T05:22:51.353Z,20.40
2018-11-26T05:27:54.482Z,20.90
2018-11-26T05:32:57.633Z,20.60
2018-11-26T05:38:00.774Z,19.40
2018-11-26T05:43:03.923Z,21.57
2018-11-26T05:48:07.187Z,21.30
2018-11-26T05:53:10.352Z,20.87
2018-11-26T05:58:13.471Z,22.50
2018-11-26T06:03:16.604Z,21.90
2018-11-26T06:08:20.351Z,21.80
2018-11-26T06:13:23.543Z,20.80
2018-11-26T06:18:26.684Z,22.33
2018-11-26T06:23:29.852Z,21.27
2018-11-26T06:28:32.996Z,21.10
2018-11-26T06:33:36.124Z,22.90
2018-11-26T06:38:39.266Z,22.60
2018-11-26T06:43:42.464Z,21.33
2018-11-26T06:48:45.680Z,22.00
2018-11-26T06:53:48.835Z,19.60
2018-11-26T06:58:51.991Z,19.67
2018-11-26T07:03:55.140Z,20.93
2018-11-26T07:08:58.286Z,22.47
2018-11-26T07:14:01.495Z,20.70
2018-11-26T07:19:04.931Z,23.23
2018-11-26T07:24:08.153Z,21.33
2018-11-26T07:29:11.283Z,21.43
2018-11-26T07:34:14.423Z,20.63
2018-11-26T07:39:17.597Z,23.13
2018-11-26T07:44:20.767Z,22.43
2018-11-26T07:49:23.921Z,21.03
2018-11-26T07:54:27.056Z,23.80
2018-11-26T07:59:30.192Z,21.10
2018-11-26T08:04:33.349Z,21.13
2018-11-26T08:09:36.548Z,22.50
2018-11-26T08:14:39.756Z,23.13
2018-11-26T08:19:42.936Z,22.63
2018-11-26T08:24:46.093Z,23.47
2018-11-26T08:29:49.281Z,22.17
2018-11-26T08:34:52.535Z,22.83
2018-11-26T08:40:00.293Z,21.83
2018-11-26T08:45:05.876Z,20.80
2018-11-26T08:50:09.683Z,19.80
2018-11-26T08:55:12.932Z,20.80
2018-11-26T09:00:16.157Z,20.73
2018-11-26T09:05:26.676Z,20.37
2018-11-26T09:10:29.906Z,21.07
2018-11-26T09:15:33.117Z,18.43
2018-11-26T09:20:36.342Z,19.80
2018-11-26T09:25:39.519Z,20.50
2018-11-26T09:30:42.949Z,20.00
2018-11-26T09:35:46.161Z,19.63
2018-11-26T09:40:49.330Z,20.50
2018-11-26T09:45:52.518Z,19.10
2018-11-26T09:50:55.680Z,21.73
2018-11-26T09:55:58.868Z,21.30
2018-11-26T10:01:02.187Z,22.03
2018-11-26T10:06:05.792Z,22.53
2018-11-26T10:11:08.990Z,21.23
2018-11-26T10:16:12.230Z,22.60
2018-11-26T10:21:15.488Z,21.20
2018-11-26T10:26:18.687Z,20.27
2018-11-26T10:31:21.876Z,19.57
2018-11-26T10:36:25.057Z,20.40
2018-11-26T10:41:28.241Z,21.97
2018-11-26T10:46:31.436Z,21.13
2018-11-26T10:51:34.662Z,20.27
2018-11-26T10:56:37.845Z,19.80
2018-11-26T11:01:45.913Z,19.63
2018-11-26T11:06:51.928Z,19.40
2018-11-26T11:11:52.418Z,19.37
2018-11-26T11:16:55.652Z,17.33
2018-11-26T11:21:58.856Z,16.97
2018-11-26T11:27:02.081Z,16.53
2018-11-26T11:32:05.269Z,16.90
2018-11-26T11:37:08.470Z,16.03
2018-11-26T11:42:11.701Z,15.53
2018-11-26T11:47:14.946Z,16.47
2018-11-26T11:52:18.143Z,17.20
2018-11-26T11:57:21.406Z,18.50
2018-11-26T12:02:24.713Z,16.77
2018-11-26T12:07:27.945Z,17.03
2018-11-26T12:12:31.204Z,17.53
2018-11-26T12:17:34.441Z,17.60
2018-11-26T12:22:37.674Z,18.63
2018-11-26T12:27:41.044Z,17.80
2018-11-26T12:32:44.324Z,18.80
2018-11-26T12:37:47.562Z,18.10
2018-11-26T12:42:55.675Z,20.83
2018-11-26T12:47:59.050Z,19.83
2018-11-26T12:53:02.289Z,19.30
2018-11-26T12:58:06.903Z,20.43
2018-11-26T13:03:13.456Z,20.57
2018-11-26T13:08:17.043Z,20.07
2018-11-26T13:13:19.966Z,18.73
2018-11-26T13:18:23.376Z,19.97
2018-11-26T13:23:26.580Z,20.07
2018-11-26T13:28:29.795Z,23.37
2018-11-26T13:33:33.047Z,21.60
2018-11-26T13:38:36.273Z,19.33
2018-11-26T13:43:39.481Z,20.13
2018-11-26T13:48:42.658Z,18.40
2018-11-26T13:53:45.900Z,21.00
2018-11-26T13:58:49.152Z,19.97
2018-11-26T14:03:52.472Z,18.47
2018-11-26T14:08:55.714Z,21.07
2018-11-26T14:13:58.952Z,19.10
2018-11-26T14:19:02.172Z,19.03
2018-11-26T14:24:05.946Z,19.70
2018-11-26T14:29:09.168Z,21.53
2018-11-26T14:34:12.316Z,21.00
2018-11-26T14:39:15.505Z,24.17
2018-11-26T14:44:18.726Z,24.07
2018-11-26T14:49:21.968Z,19.60
2018-11-26T14:54:25.185Z,20.97
2018-11-26T14:59:28.434Z,17.43
2018-11-26T15:04:31.650Z,18.70
2018-11-26T15:09:34.889Z,17.67
2018-11-26T15:14:38.222Z,14.37
2018-11-26T15:19:41.473Z,14.73
2018-11-26T15:24:44.785Z,14.10
2018-11-26T15:29:47.973Z,15.50
2018-11-26T15:34:51.227Z,13.90
2018-11-26T15:39:54.434Z,10.93
2018-11-26T15:44:57.773Z,12.13
2018-11-26T15:50:01.355Z,12.50
2018-11-26T15:55:05.024Z,11.33
2018-11-26T16:00:13.105Z,10.93
2018-11-26T16:05:22.197Z,12.40
2018-11-26T16:10:25.501Z,18.23
2018-11-26T16:15:35.256Z,11.60
2018-11-26T16:20:38.473Z,12.87
2018-11-26T16:25:46.590Z,18.23
2018-11-26T16:30:49.847Z,14.83
2018-11-26T16:35:53.090Z,13.10
2018-11-26T16:40:56.366Z,13.97
2018-11-26T16:45:59.584Z,16.63
2018-11-26T16:51:02.782Z,21.80
2018-11-26T16:56:06.057Z,19.80
2018-11-26T17:01:09.271Z,23.37
2018-11-26T17:06:12.479Z,18.90
2018-11-26T17:11:15.802Z,19.17
2018-11-26T17:16:19.115Z,30.33
2018-11-26T17:21:22.342Z,21.33
2018-11-26T17:26:25.649Z,18.97
2018-11-26T17:31:28.873Z,17.63
2018-11-26T17:36:32.102Z,16.03
2018-11-26T17:41:35.321Z,18.93
2018-11-26T17:46:38.652Z,17.57
2018-11-26T17:51:41.880Z,36.73
2018-11-26T17:56:45.125Z,22.70
2018-11-26T18:01:48.463Z,26.33
2018-11-26T18:06:51.878Z,24.10
2018-11-26T18:11:55.119Z,18.17
2018-11-26T18:16:58.361Z,18.80
2018-11-26T18:22:01.674Z,20.20
2018-11-26T18:27:07.265Z,21.97
2018-11-26T18:32:10.669Z,21.93
2018-11-26T18:37:13.894Z,20.90
2018-11-26T18:42:17.144Z,26.67
2018-11-26T18:47:23.515Z,22.37
2018-11-26T18:52:26.808Z,23.10
2018-11-26T18:57:30.075Z,27.23
2018-11-26T19:02:33.366Z,33.90
2018-11-26T19:07:36.638Z,20.27
2018-11-26T19:12:40.148Z,18.77
2018-11-26T19:17:43.390Z,20.77
2018-11-26T19:22:46.790Z,19.17
2018-11-26T19:27:50.083Z,16.93
2018-11-26T19:32:53.356Z,17.43
2018-11-26T19:37:56.625Z,17.53
2018-11-26T19:42:59.986Z,25.10
2018-11-26T19:48:03.321Z,22.60
2018-11-26T19:53:10.001Z,20.97
2018-11-26T19:58:13.413Z,22.00
2018-11-26T20:03:24.634Z,20.73
2018-11-26T20:08:27.953Z,19.70
2018-11-26T20:13:31.307Z,18.23
2018-11-26T20:18:34.693Z,19.17
2018-11-26T20:23:38.773Z,21.17
2018-11-26T20:28:42.108Z,15.70
2018-11-26T20:33:45.471Z,23.23
2018-11-26T20:38:48.767Z,21.43
2018-11-26T20:43:52.054Z,18.97
2018-11-26T20:48:55.292Z,20.87
2018-11-26T20:53:58.552Z,21.47
2018-11-26T20:59:01.801Z,21.30
2018-11-26T21:04:05.442Z,23.87
2018-11-26T21:09:09.038Z,22.63
2018-11-26T21:14:12.277Z,21.77
2018-11-26T21:19:15.562Z,21.63
2018-11-26T21:24:18.814Z,20.30
2018-11-26T21:29:22.083Z,20.57
2018-11-26T21:34:25.344Z,22.17
2018-11-26T21:39:28.571Z,21.77
2018-11-26T21:44:31.865Z,21.43
2018-11-26T21:49:35.106Z,24.00
2018-11-26T21:54:38.307Z,21.00
2018-11-26T21:59:41.536Z,22.27
2018-11-26T22:04:44.775Z,21.93
2018-11-26T22:09:48.045Z,21.23
2018-11-26T22:14:51.403Z,21.33
2018-11-26T22:19:54.631Z,23.00
2018-11-26T22:24:57.834Z,26.77
2018-11-26T22:30:01.110Z,24.90
2018-11-26T22:35:05.073Z,28.63
2018-11-26T22:40:11.554Z,25.53
2018-11-26T22:45:17.340Z,27.67
2018-11-26T22:50:20.573Z,25.53
2018-11-26T22:55:23.777Z,25.43
2018-11-26T23:00:34.969Z,25.53
2018-11-26T23:05:38.182Z,23.60
2018-11-26T23:10:41.402Z,25.70
2018-11-26T23:15:44.665Z,28.43
2018-11-26T23:20:47.857Z,28.93
2018-11-26T23:25:52.954Z,26.77
2018-11-26T23:30:57.911Z,27.37
2018-11-26T23:36:03.828Z,30.80
2018-11-26T23:41:07.288Z,29.57
2018-11-26T23:46:10.772Z,26.33
2018-11-26T23:51:13.962Z,27.97
2018-11-26T23:56:17.133Z,22.40
